Lundstrom Tide — YJTE2 — position and weather

sailwx.info

Track history (hours):
 
Tides and Currents Weather Stations Pressure Air Temp Water Temp Dewpoint Dewpoint Depression Visibility Wind Speed Wind Dir Waves Ship Positions

Lundstrom Tide

Last reported at 2018-Feb-06 12:47 UTC. Time now 2018-Feb-21 01:58 UTC.
Position N 35°54' E 014°32'.
Warning: this ship's position is 14 days out of date.

Length 88 m; draft 5 m.

Type: Other ship. MMSI: 577129000.

Date/timePositionNaut miles runAvg speedWind from/ knotsBaromVisibWave heightAir tempDewpointWater temp
2018-Feb-06 12:47N 35°54' E 014°32'2 5.5
2018-Feb-06 12:30N 35°56' E 014°32'1 2.4
2018-Feb-06 11:59N 35°57' E 014°33'3 6.1
2018-Feb-06 11:30N 35°56' E 014°36'3 5.5
2018-Feb-06 11:00N 35°59' E 014°36'1 2.0
2018-Feb-06 10:28N 35°58' E 014°37'1 3.1
2018-Feb-06 10:00N 35°57' E 014°38'2 3.7
2018-Feb-06 09:30N 35°56' E 014°40'4 7.4
2018-Feb-06 09:00N 35°54' E 014°44'2 0.9
2018-Feb-06 07:09N 35°53' E 014°46'0 0.0
2018-Feb-06 06:51N 35°53' E 014°46'0 0.0
2018-Feb-06 06:24N 35°53' E 014°46'0 0.0
2018-Feb-06 05:54N 35°53' E 014°46'0 0.0
2018-Feb-06 05:03N 35°53' E 014°46'0 0.1
2018-Feb-06 04:54N 35°53' E 014°46'0 0.0
2018-Feb-06 04:18N 35°53' E 014°46'0 0.0
2018-Feb-06 03:27N 35°53' E 014°46'0 0.1
2018-Feb-06 02:51N 35°53' E 014°46'0 0.1
2018-Feb-06 02:18N 35°53' E 014°46'0 0.0
2018-Feb-06 01:33N 35°53' E 014°46'0 0.4
2018-Feb-06 01:30N 35°53' E 014°46'0 0.0
2018-Feb-06 00:57N 35°53' E 014°46'0 0.0
2018-Feb-06 00:18N 35°53' E 014°46'0 0.0
2018-Feb-05 23:51N 35°53' E 014°46'0 0.0
2018-Feb-05 23:24N 35°53' E 014°46'0 0.0
2018-Feb-05 23:00N 35°53' E 014°46'0 0.1
2018-Feb-05 22:30N 35°53' E 014°46'0 0.0
2018-Feb-05 21:51N 35°53' E 014°46'0 0.0
2018-Feb-05 20:54N 35°53' E 014°46'0 0.0
2018-Feb-05 20:30N 35°53' E 014°46'0 0.1
2018-Feb-05 20:00N 35°53' E 014°46'0 0.0
2018-Feb-05 19:12N 35°53' E 014°46'0 0.1
2018-Feb-05 18:48N 35°53' E 014°46'0 0.1
2018-Feb-05 18:24N 35°53' E 014°46'0 0.1
2018-Feb-05 17:51N 35°53' E 014°46'0 0.2
2018-Feb-05 17:30N 35°53' E 014°46'0 0.1
2018-Feb-05 17:00N 35°53' E 014°46'0 0.0
2018-Feb-05 16:30N 35°53' E 014°46'0 0.0
2018-Feb-05 15:42N 35°53' E 014°46'0 0.1
2018-Feb-05 15:30N 35°53' E 014°46'0 0.0
2018-Feb-05 14:45N 35°53' E 014°46'0 0.0
2018-Feb-05 14:00N 35°53' E 014°46'0 0.0
2018-Feb-05 13:18N 35°53' E 014°46'0 0.0
2018-Feb-05 12:54N 35°53' E 014°46'0 0.0
2018-Feb-05 11:18N 35°53' E 014°46'0 0.1
2018-Feb-05 11:00N 35°53' E 014°46'0 0.1
2018-Feb-05 10:12N 35°53' E 014°46'0 0.0
2018-Feb-05 09:39N 35°53' E 014°46'0 0.0
2018-Feb-05 08:45N 35°53' E 014°46'0 0.1
2018-Feb-05 08:24N 35°53' E 014°46'0 0.1
2018-Feb-05 07:48N 35°53' E 014°46'0 0.0
2018-Feb-05 07:29N 35°53' E 014°46'0 0.0
2018-Feb-05 06:59N 35°53' E 014°46'0 0.0
2018-Feb-05 06:29N 35°53' E 014°46'0 0.0
2018-Feb-05 05:29N 35°53' E 014°46'0 0.0
2018-Feb-05 04:58N 35°53' E 014°46'0 0.0
2018-Feb-05 04:26N 35°53' E 014°46'0 0.0
2018-Feb-05 03:53N 35°53' E 014°46'0 0.0
2018-Feb-05 03:29N 35°53' E 014°46'0 0.0
2018-Feb-05 03:00N 35°53' E 014°46'0 0.0
2018-Feb-05 02:30N 35°53' E 014°46'0 0.0
2018-Feb-05 02:00N 35°53' E 014°46'0 0.0
2018-Feb-05 01:28N 35°53' E 014°46'0 0.0
2018-Feb-05 00:51N 35°53' E 014°46'0 0.0
2018-Feb-05 00:30N 35°53' E 014°46'0 0.0
2018-Feb-04 23:58N 35°53' E 014°46'0 0.0
2018-Feb-04 23:30N 35°53' E 014°46'0 0.0
2018-Feb-04 22:52N 35°53' E 014°46'  
Track history (hours):
 
Tides and Currents Weather Stations Pressure Air Temp Water Temp Dewpoint Dewpoint Depression Visibility Wind Speed Wind Dir Waves Ship Positions

Lundstrom Tide

Last reported at 2018-Feb-06 12:47 UTC. Time now 2018-Feb-21 01:58 UTC.
Position N 35°54' E 014°32'.
Warning: this ship's position is 14 days out of date.

Length 88 m; draft 5 m.

Type: Other ship. MMSI: 577129000.

Date/timePositionNaut miles runAvg speedWind from/ knotsBaromVisibWave heightAir tempDewpointWater temp
2018-Feb-06 12:47N 35°54' E 014°32'2 5.5
2018-Feb-06 12:30N 35°56' E 014°32'1 2.4
2018-Feb-06 11:59N 35°57' E 014°33'3 6.1
2018-Feb-06 11:30N 35°56' E 014°36'3 5.5
2018-Feb-06 11:00N 35°59' E 014°36'1 2.0
2018-Feb-06 10:28N 35°58' E 014°37'1 3.1
2018-Feb-06 10:00N 35°57' E 014°38'2 3.7
2018-Feb-06 09:30N 35°56' E 014°40'4 7.4
2018-Feb-06 09:00N 35°54' E 014°44'2 0.9
2018-Feb-06 07:09N 35°53' E 014°46'0 0.0
2018-Feb-06 06:51N 35°53' E 014°46'0 0.0
2018-Feb-06 06:24N 35°53' E 014°46'0 0.0
2018-Feb-06 05:54N 35°53' E 014°46'0 0.0
2018-Feb-06 05:03N 35°53' E 014°46'0 0.1
2018-Feb-06 04:54N 35°53' E 014°46'0 0.0
2018-Feb-06 04:18N 35°53' E 014°46'0 0.0
2018-Feb-06 03:27N 35°53' E 014°46'0 0.1
2018-Feb-06 02:51N 35°53' E 014°46'0 0.1
2018-Feb-06 02:18N 35°53' E 014°46'0 0.0
2018-Feb-06 01:33N 35°53' E 014°46'0 0.4
2018-Feb-06 01:30N 35°53' E 014°46'0 0.0
2018-Feb-06 00:57N 35°53' E 014°46'0 0.0
2018-Feb-06 00:18N 35°53' E 014°46'0 0.0
2018-Feb-05 23:51N 35°53' E 014°46'0 0.0
2018-Feb-05 23:24N 35°53' E 014°46'0 0.0
2018-Feb-05 23:00N 35°53' E 014°46'0 0.1
2018-Feb-05 22:30N 35°53' E 014°46'0 0.0
2018-Feb-05 21:51N 35°53' E 014°46'0 0.0
2018-Feb-05 20:54N 35°53' E 014°46'0 0.0
2018-Feb-05 20:30N 35°53' E 014°46'0 0.1
2018-Feb-05 20:00N 35°53' E 014°46'0 0.0
2018-Feb-05 19:12N 35°53' E 014°46'0 0.1
2018-Feb-05 18:48N 35°53' E 014°46'0 0.1
2018-Feb-05 18:24N 35°53' E 014°46'0 0.1
2018-Feb-05 17:51N 35°53' E 014°46'0 0.2
2018-Feb-05 17:30N 35°53' E 014°46'0 0.1
2018-Feb-05 17:00N 35°53' E 014°46'0 0.0
2018-Feb-05 16:30N 35°53' E 014°46'0 0.0
2018-Feb-05 15:42N 35°53' E 014°46'0 0.1
2018-Feb-05 15:30N 35°53' E 014°46'0 0.0
2018-Feb-05 14:45N 35°53' E 014°46'0 0.0
2018-Feb-05 14:00N 35°53' E 014°46'0 0.0
2018-Feb-05 13:18N 35°53' E 014°46'0 0.0
2018-Feb-05 12:54N 35°53' E 014°46'0 0.0
2018-Feb-05 11:18N 35°53' E 014°46'0 0.1
2018-Feb-05 11:00N 35°53' E 014°46'0 0.1
2018-Feb-05 10:12N 35°53' E 014°46'0 0.0
2018-Feb-05 09:39N 35°53' E 014°46'0 0.0
2018-Feb-05 08:45N 35°53' E 014°46'0 0.1
2018-Feb-05 08:24N 35°53' E 014°46'0 0.1
2018-Feb-05 07:48N 35°53' E 014°46'0 0.0
2018-Feb-05 07:29N 35°53' E 014°46'0 0.0
2018-Feb-05 06:59N 35°53' E 014°46'0 0.0
2018-Feb-05 06:29N 35°53' E 014°46'0 0.0
2018-Feb-05 05:29N 35°53' E 014°46'0 0.0
2018-Feb-05 04:58N 35°53' E 014°46'0 0.0
2018-Feb-05 04:26N 35°53' E 014°46'0 0.0
2018-Feb-05 03:53N 35°53' E 014°46'0 0.0
2018-Feb-05 03:29N 35°53' E 014°46'0 0.0
2018-Feb-05 03:00N 35°53' E 014°46'0 0.0
2018-Feb-05 02:30N 35°53' E 014°46'0 0.0
2018-Feb-05 02:00N 35°53' E 014°46'0 0.0
2018-Feb-05 01:28N 35°53' E 014°46'0 0.0
2018-Feb-05 00:51N 35°53' E 014°46'0 0.0
2018-Feb-05 00:30N 35°53' E 014°46'0 0.0
2018-Feb-04 23:58N 35°53' E 014°46'0 0.0
2018-Feb-04 23:30N 35°53' E 014°46'0 0.0
2018-Feb-04 22:52N 35°53' E 014°46'  

Dump ship's entire track history